Hovedside
METAR-TAF:

METAR-TAF

Lufthavner :

Västerås lufthavn

Västerås, Sverige

breddegrad: 59-35N, lengdegrad: 016-38E, høyde over havet: 6 m

Gjeldene værobservasjon

Denne rapporten ble laget for 34 minutter siden, klokken 23:20 UTC
Vind 4 kt fra Nord-nordøst
Temperatur -1°C
Luftfuktighet 86%
Trykk 1034 hPa
Sikt 10 km eller mer

METAR: ESOW 132320Z AUTO 03004KT 9999 OVC016/// M01/M03 Q1034

Tid: 00:54 (23:54 UTC)

Varsel

Denne rapporten ble laget for 12 timer og 24 minutter siden, klokken 11:30 UTC
Varsel gyldig fra 13. klokken 12 UTC til 13. klokken 15 UTC
Vind 7 kt fra Nord
Sikt 10 km eller mer
Spredte skyer i en høyde av 500 ft
Brutte skyer i en høyde av 2000 ft
Sannsynlighet 40%
fra 13. klokken 12 UTC til 13. klokken 15 UTC
Sikt: 4000 m
Brutte skyer i en høyde av 500 ft
lett snø

TAF: ESOW 131130Z 1312/1315 36007KT 9999 SCT005 BKN020 PROB40 1312/1315 4000 -SN BKN005

Værobservasjoner og værvarsel for over 4000 flyplasser (METAR- og TAF-rapporter).

Tilgjengelige stasjoner er representert av de røde og gule prikkene på kartet.

Hold musepekeren over prikken for å se navnet på stasjonen.

Klikk så for å se værobservasjoner og -varsler.

For å forandre kartet kan du klikke på den grønne knappen med svart kryss for å zoome inn, på den grønne knappen med strek for å zoome ut, eller på de grønne pilene for å se tilstøtende kart.


METAR-TAF: